createdAt,value
2022-12-23T00:01:26.852Z,1.27
2022-12-23T00:04:01.651Z,1.30
2022-12-23T00:06:32.377Z,1.10
2022-12-23T00:09:03.803Z,1.20
2022-12-23T00:11:36.059Z,1.30
2022-12-23T00:14:23.520Z,1.10
2022-12-23T00:16:54.204Z,1.77
2022-12-23T00:19:24.790Z,1.33
2022-12-23T00:21:55.354Z,1.50
2022-12-23T00:24:26.038Z,0.90
2022-12-23T00:26:58.452Z,1.08
2022-12-23T00:29:29.072Z,0.90
2022-12-23T00:31:59.710Z,1.15
2022-12-23T00:38:39.138Z,1.17
2022-12-23T00:41:30.466Z,1.20
2022-12-23T00:44:04.874Z,1.40
2022-12-23T00:46:37.340Z,1.15
2022-12-23T00:49:38.661Z,1.13
2022-12-23T00:52:14.249Z,1.52
2022-12-23T00:54:47.421Z,1.17
2022-12-23T00:57:19.896Z,0.80
2022-12-23T00:59:54.093Z,1.08
2022-12-23T01:02:43.877Z,1.50
2022-12-23T01:05:39.089Z,1.15
2022-12-23T01:08:13.584Z,1.00
2022-12-23T01:10:46.429Z,1.15
2022-12-23T01:13:18.927Z,1.00
2022-12-23T01:15:55.432Z,1.50
2022-12-23T01:18:29.948Z,1.00
2022-12-23T01:21:09.115Z,1.00
2022-12-23T01:23:41.698Z,0.82
2022-12-23T01:26:16.434Z,0.88
2022-12-23T01:28:48.891Z,1.17
2022-12-23T01:31:23.679Z,1.10
2022-12-23T01:33:58.623Z,2.08
2022-12-23T01:36:34.380Z,1.38
2022-12-23T01:39:08.641Z,1.98
2022-12-23T01:41:56.731Z,1.60
2022-12-23T01:44:57.995Z,2.80
2022-12-23T01:47:43.253Z,1.58
2022-12-23T01:50:40.068Z,1.63
2022-12-23T01:53:18.472Z,2.80
2022-12-23T01:56:01.052Z,1.50
2022-12-23T01:58:38.183Z,1.70
2022-12-23T02:01:28.300Z,2.17
2022-12-23T02:04:16.953Z,1.02
2022-12-23T02:07:10.473Z,0.95
2022-12-23T02:09:46.379Z,1.15
2022-12-23T02:12:46.199Z,0.88
2022-12-23T02:15:51.091Z,1.10
2022-12-23T02:18:59.158Z,0.85
2022-12-23T02:22:05.103Z,1.13
2022-12-23T02:25:11.402Z,1.02
2022-12-23T02:28:00.780Z,0.80
2022-12-23T02:30:51.884Z,1.10
2022-12-23T02:33:36.063Z,1.10
2022-12-23T02:36:22.369Z,1.00
2022-12-23T02:39:08.096Z,0.95
2022-12-23T02:41:48.276Z,1.10
2022-12-23T02:44:35.551Z,1.40
2022-12-23T02:47:15.561Z,0.80
2022-12-23T02:49:52.063Z,0.80
2022-12-23T02:52:30.694Z,1.10
2022-12-23T02:55:06.874Z,0.80
2022-12-23T02:57:42.197Z,0.85
2022-12-23T03:00:32.196Z,1.10
2022-12-23T03:03:22.587Z,0.95
2022-12-23T03:05:57.271Z,0.73
2022-12-23T03:08:32.549Z,0.85
2022-12-23T03:11:09.269Z,0.80
2022-12-23T03:13:57.898Z,0.70
2022-12-23T03:16:38.125Z,0.77
2022-12-23T03:21:52.164Z,0.80
2022-12-23T03:24:34.893Z,0.90
2022-12-23T03:27:12.927Z,0.80
2022-12-23T03:29:51.853Z,0.90
2022-12-23T03:32:26.808Z,0.73
2022-12-23T03:35:03.200Z,1.05
2022-12-23T03:37:40.719Z,0.95
2022-12-23T03:40:20.061Z,0.70
2022-12-23T03:42:58.954Z,1.17
2022-12-23T03:45:39.446Z,0.98
2022-12-23T03:48:18.767Z,0.80
2022-12-23T03:50:55.983Z,0.80
2022-12-23T03:53:33.951Z,1.17
2022-12-23T03:56:09.783Z,0.80
2022-12-23T03:58:48.156Z,1.10
2022-12-23T04:01:28.646Z,0.90
2022-12-23T04:04:08.208Z,0.70
2022-12-23T04:06:51.456Z,0.80
2022-12-23T04:09:26.399Z,0.80
2022-12-23T04:11:59.312Z,0.82
2022-12-23T04:14:34.312Z,0.90
2022-12-23T04:17:07.054Z,0.80
2022-12-23T04:19:39.247Z,0.80
2022-12-23T04:22:13.991Z,0.88
2022-12-23T04:24:46.504Z,0.80
2022-12-23T04:27:19.661Z,1.00
2022-12-23T04:29:52.154Z,1.17
2022-12-23T04:32:25.059Z,1.00
2022-12-23T04:34:58.043Z,0.80
2022-12-23T04:37:33.414Z,0.70
2022-12-23T04:40:06.047Z,0.80
2022-12-23T04:42:39.241Z,0.93
2022-12-23T04:45:13.494Z,0.90
2022-12-23T04:47:47.136Z,1.10
2022-12-23T04:50:20.197Z,0.80
2022-12-23T04:52:54.796Z,0.88
2022-12-23T04:55:28.400Z,0.77
2022-12-23T04:58:00.651Z,1.10
2022-12-23T05:00:38.927Z,1.50
2022-12-23T05:03:11.821Z,0.90
2022-12-23T05:05:48.336Z,1.10
2022-12-23T05:08:22.140Z,0.95
2022-12-23T05:10:54.778Z,0.70
2022-12-23T05:13:27.246Z,1.00
2022-12-23T05:16:00.937Z,0.77
2022-12-23T05:18:34.615Z,0.82
2022-12-23T05:21:07.771Z,0.90
2022-12-23T05:23:42.152Z,0.80
2022-12-23T05:26:17.220Z,0.80
2022-12-23T05:28:51.776Z,0.70
2022-12-23T05:31:23.680Z,0.80
2022-12-23T05:34:11.708Z,0.90
2022-12-23T05:36:44.771Z,0.90
2022-12-23T05:39:37.491Z,1.00
2022-12-23T05:42:26.841Z,0.80
2022-12-23T05:45:01.910Z,0.80
2022-12-23T05:47:41.933Z,0.90
2022-12-23T05:50:15.472Z,1.05
2022-12-23T05:52:48.881Z,1.00
2022-12-23T05:55:23.556Z,1.25
2022-12-23T05:57:56.587Z,0.98
2022-12-23T06:00:31.620Z,0.95
2022-12-23T06:03:07.519Z,0.90
2022-12-23T06:06:01.881Z,1.02
2022-12-23T06:08:35.422Z,1.00
2022-12-23T06:11:15.592Z,0.90
2022-12-23T06:13:48.205Z,1.00
2022-12-23T06:16:24.758Z,1.05
2022-12-23T06:19:00.611Z,0.90
2022-12-23T06:21:34.324Z,1.00
2022-12-23T06:24:06.666Z,0.80
2022-12-23T06:26:41.203Z,0.90
2022-12-23T06:29:15.705Z,1.67
2022-12-23T06:31:48.292Z,1.10
2022-12-23T06:34:20.808Z,0.93
2022-12-23T06:36:53.408Z,0.90
2022-12-23T06:39:25.748Z,1.10
2022-12-23T06:41:59.911Z,1.17
2022-12-23T06:44:33.524Z,1.02
2022-12-23T06:47:09.331Z,1.48
2022-12-23T06:49:45.345Z,1.30
2022-12-23T06:52:23.286Z,1.40
2022-12-23T06:55:01.772Z,1.20
2022-12-23T06:57:39.540Z,1.05
2022-12-23T07:00:32.168Z,1.33
2022-12-23T07:03:20.847Z,1.30
2022-12-23T07:05:51.602Z,1.00
2022-12-23T07:08:22.445Z,1.00
2022-12-23T07:10:53.212Z,1.13
2022-12-23T07:13:25.620Z,0.80
2022-12-23T07:15:56.513Z,1.10
2022-12-23T07:18:45.242Z,1.00
2022-12-23T07:21:33.837Z,0.90
2022-12-23T07:24:06.408Z,1.35
2022-12-23T07:26:37.203Z,1.00
2022-12-23T07:29:28.076Z,1.88
2022-12-23T07:31:59.354Z,1.10
2022-12-23T07:34:30.124Z,1.08
2022-12-23T07:37:00.862Z,1.05
2022-12-23T07:39:34.115Z,0.90
2022-12-23T07:45:40.762Z,0.90
2022-12-23T07:48:12.501Z,1.00
2022-12-23T07:50:43.155Z,0.90
2022-12-23T07:53:14.492Z,1.33
2022-12-23T07:55:45.201Z,1.23
2022-12-23T07:58:15.946Z,1.02
2022-12-23T08:00:48.243Z,1.15
2022-12-23T08:03:19.201Z,1.05
2022-12-23T08:05:49.864Z,1.02
2022-12-23T08:08:20.858Z,1.10
2022-12-23T08:10:51.505Z,1.08
2022-12-23T08:13:22.456Z,1.00
2022-12-23T08:15:59.591Z,1.08
2022-12-23T08:21:26.331Z,0.80
2022-12-23T08:23:57.120Z,0.80
2022-12-23T08:26:28.316Z,0.93
2022-12-23T08:28:59.374Z,0.80
2022-12-23T08:31:33.670Z,0.75
2022-12-23T08:34:06.636Z,0.80
2022-12-23T08:37:07.483Z,0.90
2022-12-23T08:39:38.677Z,0.90
2022-12-23T08:45:21.674Z,0.95
2022-12-23T08:47:54.244Z,1.10
2022-12-23T08:50:28.714Z,1.23
2022-12-23T08:53:02.057Z,0.95
2022-12-23T08:55:36.662Z,1.00
2022-12-23T08:58:07.405Z,1.15
2022-12-23T09:00:40.596Z,1.30
2022-12-23T09:03:31.006Z,0.90
2022-12-23T09:06:01.854Z,0.95
2022-12-23T09:08:32.617Z,1.10
2022-12-23T09:11:07.731Z,0.90
2022-12-23T09:13:38.661Z,1.30
2022-12-23T09:16:10.627Z,1.23
2022-12-23T09:18:43.366Z,1.02
2022-12-23T09:21:35.674Z,1.25
2022-12-23T09:24:09.792Z,0.82
2022-12-23T09:26:58.380Z,1.30
2022-12-23T09:29:29.598Z,1.13
2022-12-23T09:34:58.602Z,1.08
2022-12-23T09:37:29.329Z,1.35
2022-12-23T09:40:21.032Z,0.90
2022-12-23T09:43:07.823Z,0.80
2022-12-23T09:46:06.505Z,1.30
2022-12-23T09:51:56.702Z,1.27
2022-12-23T09:54:30.763Z,1.33
2022-12-23T09:57:03.708Z,1.88
2022-12-23T10:00:05.715Z,1.40
2022-12-23T10:02:48.227Z,1.85
2022-12-23T10:05:33.633Z,1.88
2022-12-23T10:08:12.910Z,1.63
2022-12-23T10:11:02.852Z,2.15
2022-12-23T10:13:39.705Z,2.90
2022-12-23T10:16:29.698Z,1.63
2022-12-23T10:19:21.696Z,1.90
2022-12-23T10:21:55.386Z,1.45
2022-12-23T10:24:29.236Z,1.70
2022-12-23T10:27:03.659Z,1.65
2022-12-23T10:32:42.941Z,1.67
2022-12-23T10:35:46.560Z,1.63
2022-12-23T10:38:31.919Z,2.08
2022-12-23T10:41:24.029Z,2.22
2022-12-23T10:44:12.921Z,1.80
2022-12-23T10:46:55.817Z,2.05
2022-12-23T10:52:32.718Z,3.00
2022-12-23T10:55:03.555Z,2.05
2022-12-23T10:57:36.918Z,2.42
2022-12-23T11:00:20.841Z,2.33
2022-12-23T11:06:06.747Z,3.03
2022-12-23T11:08:41.710Z,1.80
2022-12-23T11:11:15.437Z,2.42
2022-12-23T11:13:51.963Z,2.20
2022-12-23T11:16:27.763Z,2.17
2022-12-23T11:19:01.799Z,2.20
2022-12-23T11:21:34.308Z,1.90
2022-12-23T11:24:20.270Z,2.03
2022-12-23T11:26:59.651Z,2.40
2022-12-23T11:29:40.771Z,2.38
2022-12-23T11:32:31.403Z,2.45
2022-12-23T11:37:56.862Z,2.40
2022-12-23T11:43:30.120Z,2.28
2022-12-23T11:46:31.734Z,2.50
2022-12-23T11:49:19.706Z,1.70
2022-12-23T11:51:52.076Z,1.80
2022-12-23T11:54:23.799Z,2.00
2022-12-23T11:59:58.470Z,2.90
2022-12-23T12:02:38.003Z,1.45
2022-12-23T12:05:20.941Z,2.17
2022-12-23T12:07:55.226Z,1.52
2022-12-23T12:10:31.383Z,2.10
2022-12-23T12:13:06.767Z,1.60
2022-12-23T12:15:46.313Z,1.40
2022-12-23T12:18:22.408Z,1.23
2022-12-23T12:21:01.622Z,1.30
2022-12-23T12:23:44.999Z,1.45
2022-12-23T12:26:21.835Z,1.20
2022-12-23T12:28:59.561Z,1.45
2022-12-23T12:31:37.155Z,2.30
2022-12-23T12:34:30.912Z,2.08
2022-12-23T12:37:09.793Z,1.48
2022-12-23T12:39:45.727Z,2.15
2022-12-23T12:42:23.274Z,1.98
2022-12-23T12:45:09.195Z,1.30
2022-12-23T12:47:53.735Z,2.38
2022-12-23T12:50:32.678Z,1.60
2022-12-23T12:53:13.960Z,1.65
2022-12-23T12:55:48.471Z,1.95
2022-12-23T12:58:23.816Z,1.27
2022-12-23T13:01:08.013Z,1.45
2022-12-23T13:04:03.180Z,1.80
2022-12-23T13:06:46.491Z,1.60
2022-12-23T13:09:30.386Z,1.90
2022-12-23T13:12:11.323Z,1.50
2022-12-23T13:14:58.685Z,2.03
2022-12-23T13:17:35.781Z,1.65
2022-12-23T13:20:20.303Z,1.50
2022-12-23T13:23:42.159Z,1.88
2022-12-23T13:26:18.508Z,1.52
2022-12-23T13:29:00.031Z,1.90
2022-12-23T13:31:52.877Z,1.40
2022-12-23T13:34:49.310Z,2.20
2022-12-23T13:37:30.416Z,1.23
2022-12-23T13:40:14.958Z,1.30
2022-12-23T13:42:51.793Z,1.33
2022-12-23T13:45:24.155Z,1.42
2022-12-23T13:48:08.791Z,1.20
2022-12-23T13:50:46.294Z,1.00
2022-12-23T13:53:27.637Z,1.20
2022-12-23T13:56:13.823Z,1.70
2022-12-23T13:58:45.218Z,0.93
2022-12-23T14:01:38.378Z,1.55
2022-12-23T14:04:37.519Z,1.13
2022-12-23T14:07:21.841Z,1.55
2022-12-23T14:09:56.798Z,1.58
2022-12-23T14:12:31.604Z,1.23
2022-12-23T14:15:30.390Z,1.55
2022-12-23T14:18:15.505Z,2.13
2022-12-23T14:20:53.255Z,1.92
2022-12-23T14:23:41.784Z,2.00
2022-12-23T14:26:47.310Z,2.20
2022-12-23T14:29:48.604Z,1.98
2022-12-23T14:32:27.899Z,3.15
2022-12-23T14:35:42.710Z,1.85
2022-12-23T14:38:26.793Z,4.03
2022-12-23T14:41:39.364Z,3.58
2022-12-23T14:44:23.380Z,2.67
2022-12-23T14:47:00.676Z,2.22
2022-12-23T14:49:46.437Z,2.88
2022-12-23T14:52:55.018Z,2.83
2022-12-23T14:55:47.854Z,2.78
2022-12-23T14:58:34.352Z,2.30
2022-12-23T15:01:12.052Z,2.58
2022-12-23T15:03:54.575Z,2.35
2022-12-23T15:06:36.313Z,2.67
2022-12-23T15:09:09.866Z,2.92
2022-12-23T15:11:42.960Z,2.95
2022-12-23T15:14:21.453Z,1.98
2022-12-23T15:16:52.170Z,2.88
2022-12-23T15:19:27.674Z,2.45
2022-12-23T15:22:20.835Z,2.63
2022-12-23T15:24:53.084Z,2.47
2022-12-23T15:27:27.882Z,2.70
2022-12-23T15:30:00.223Z,2.30
2022-12-23T15:32:32.029Z,2.20
2022-12-23T15:35:08.868Z,2.10
2022-12-23T15:37:57.896Z,1.98
2022-12-23T15:40:30.979Z,1.75
2022-12-23T15:43:02.038Z,1.92
2022-12-23T15:45:38.782Z,1.55
2022-12-23T15:48:25.310Z,2.05
2022-12-23T15:51:02.027Z,2.08
2022-12-23T15:53:36.032Z,2.78
2022-12-23T15:56:09.920Z,2.90
2022-12-23T15:58:44.820Z,2.42
2022-12-23T16:01:39.145Z,3.40
2022-12-23T16:04:28.760Z,2.42
2022-12-23T16:07:01.230Z,3.67
2022-12-23T16:09:39.245Z,3.47
2022-12-23T16:12:28.154Z,2.58
2022-12-23T16:15:01.464Z,4.25
2022-12-23T16:17:36.743Z,3.00
2022-12-23T16:20:27.219Z,3.42
2022-12-23T16:23:04.150Z,3.17
2022-12-23T16:25:36.945Z,2.97
2022-12-23T16:28:10.508Z,3.58
2022-12-23T16:30:42.774Z,3.17
2022-12-23T16:33:29.837Z,3.10
2022-12-23T16:36:21.204Z,3.40
2022-12-23T16:38:56.259Z,2.35
2022-12-23T16:41:26.891Z,2.08
2022-12-23T16:43:58.933Z,3.33
2022-12-23T16:46:36.469Z,2.75
2022-12-23T16:49:11.814Z,3.63
2022-12-23T16:51:43.384Z,3.80
2022-12-23T16:54:17.655Z,3.90
2022-12-23T16:56:49.202Z,4.00
2022-12-23T16:59:20.706Z,3.08
2022-12-23T17:01:54.562Z,2.40
2022-12-23T17:04:28.612Z,3.13
2022-12-23T17:06:59.274Z,3.13
2022-12-23T17:09:31.580Z,3.50
2022-12-23T17:12:02.251Z,3.67
2022-12-23T17:14:33.088Z,2.45
2022-12-23T17:17:04.359Z,3.13
2022-12-23T17:19:35.076Z,2.90
2022-12-23T17:22:06.579Z,3.45
2022-12-23T17:24:38.970Z,3.95
2022-12-23T17:27:15.691Z,3.85
2022-12-23T17:29:46.617Z,3.55
2022-12-23T17:32:19.682Z,3.38
2022-12-23T17:34:50.557Z,4.30
2022-12-23T17:37:22.556Z,3.55
2022-12-23T17:39:57.579Z,2.75
2022-12-23T17:42:28.241Z,2.95
2022-12-23T17:44:58.774Z,2.65
2022-12-23T17:47:29.944Z,3.00
2022-12-23T17:50:00.605Z,3.03
2022-12-23T17:52:31.232Z,2.80
2022-12-23T17:55:03.448Z,2.75
2022-12-23T17:57:34.335Z,2.08
2022-12-23T18:00:05.175Z,1.77
2022-12-23T18:02:36.348Z,1.40
2022-12-23T18:05:23.480Z,2.20
2022-12-23T18:07:58.018Z,1.55
2022-12-23T18:10:33.382Z,3.72
2022-12-23T18:13:05.989Z,2.67
2022-12-23T18:15:39.403Z,3.08
2022-12-23T18:18:22.309Z,3.30
2022-12-23T18:20:59.213Z,2.65
2022-12-23T18:23:32.097Z,2.20
2022-12-23T18:26:04.407Z,2.80
2022-12-23T18:28:34.983Z,3.00
2022-12-23T18:31:05.704Z,2.33
2022-12-23T18:33:36.656Z,2.53
2022-12-23T18:36:07.720Z,2.35
2022-12-23T18:38:38.359Z,2.00
2022-12-23T18:41:14.795Z,2.40
2022-12-23T18:43:45.372Z,1.98
2022-12-23T18:46:16.173Z,2.50
2022-12-23T18:48:47.558Z,1.95
2022-12-23T18:51:19.778Z,1.80
2022-12-23T18:53:51.047Z,2.30
2022-12-23T18:56:24.935Z,2.03
2022-12-23T18:58:55.601Z,2.42
2022-12-23T19:01:26.560Z,1.90
2022-12-23T19:03:57.134Z,1.73
2022-12-23T19:06:27.706Z,1.83
2022-12-23T19:08:58.307Z,1.55
2022-12-23T19:11:30.660Z,1.83
2022-12-23T19:14:01.556Z,2.65
2022-12-23T19:16:32.405Z,2.08
2022-12-23T19:19:03.021Z,1.90
2022-12-23T19:21:33.660Z,2.45
2022-12-23T19:24:04.245Z,1.17
2022-12-23T19:26:36.477Z,2.30
2022-12-23T19:29:07.058Z,1.60
2022-12-23T19:31:37.648Z,2.00
2022-12-23T19:34:12.849Z,2.05
2022-12-23T19:36:46.250Z,2.72
2022-12-23T19:39:19.101Z,1.60
2022-12-23T19:41:51.414Z,1.50
2022-12-23T19:44:21.979Z,1.85
2022-12-23T19:46:52.664Z,2.58
2022-12-23T19:49:23.358Z,2.08
2022-12-23T19:51:53.906Z,1.85
2022-12-23T19:54:24.553Z,1.85
2022-12-23T19:56:56.912Z,2.53
2022-12-23T19:59:27.595Z,1.73
2022-12-23T20:01:58.457Z,1.95
2022-12-23T20:04:29.163Z,1.63
2022-12-23T20:06:59.712Z,1.48
2022-12-23T20:09:30.414Z,2.10
2022-12-23T20:12:02.653Z,2.22
2022-12-23T20:14:34.344Z,1.80
2022-12-23T20:17:05.456Z,2.08
2022-12-23T20:19:39.080Z,1.10
2022-12-23T20:22:16.289Z,2.20
2022-12-23T20:24:46.982Z,1.70
2022-12-23T20:27:24.297Z,1.98
2022-12-23T20:29:58.405Z,1.80
2022-12-23T20:32:28.988Z,1.73
2022-12-23T20:34:59.988Z,1.80
2022-12-23T20:37:30.642Z,1.65
2022-12-23T20:40:01.359Z,1.52
2022-12-23T20:42:33.715Z,1.58
2022-12-23T20:45:04.225Z,1.58
2022-12-23T20:47:34.871Z,1.40
2022-12-23T20:50:05.552Z,1.20
2022-12-23T20:52:36.133Z,1.63
2022-12-23T20:55:07.452Z,3.00
2022-12-23T20:57:39.724Z,1.25
2022-12-23T21:00:14.677Z,1.50
2022-12-23T21:02:45.347Z,1.58
2022-12-23T21:05:15.834Z,1.80
2022-12-23T21:07:46.332Z,2.08
2022-12-23T21:10:16.924Z,1.48
2022-12-23T21:12:49.089Z,1.50
2022-12-23T21:15:19.730Z,1.83
2022-12-23T21:17:50.378Z,1.50
2022-12-23T21:20:20.982Z,1.30
2022-12-23T21:22:51.594Z,1.20
2022-12-23T21:25:22.199Z,1.27
2022-12-23T21:27:55.101Z,1.55
2022-12-23T21:30:25.661Z,2.00
2022-12-23T21:33:00.978Z,1.58
2022-12-23T21:35:31.518Z,1.90
2022-12-23T21:38:02.046Z,1.63
2022-12-23T21:40:32.620Z,1.85
2022-12-23T21:43:08.676Z,1.73
2022-12-23T21:45:39.547Z,1.75
2022-12-23T21:48:10.590Z,1.77
2022-12-23T21:50:41.155Z,1.58
2022-12-23T21:53:11.670Z,1.63
2022-12-23T21:55:42.230Z,1.40
2022-12-23T21:58:31.174Z,1.63
2022-12-23T22:01:02.151Z,1.10
2022-12-23T22:03:32.900Z,1.20
2022-12-23T22:06:10.467Z,1.80
2022-12-23T22:08:41.914Z,1.23
2022-12-23T22:11:30.898Z,1.40
2022-12-23T22:14:04.161Z,1.58
2022-12-23T22:16:35.487Z,1.65
2022-12-23T22:19:08.040Z,1.42
2022-12-23T22:21:40.419Z,1.40
2022-12-23T22:24:11.647Z,1.60
2022-12-23T22:26:42.796Z,1.92
2022-12-23T22:29:15.261Z,1.40
2022-12-23T22:32:04.349Z,2.15
2022-12-23T22:34:52.120Z,1.63
2022-12-23T22:37:39.269Z,1.70
2022-12-23T22:40:11.433Z,2.17
2022-12-23T22:42:59.289Z,1.88
2022-12-23T22:45:31.437Z,2.38
2022-12-23T22:48:02.306Z,2.08
2022-12-23T22:50:32.883Z,2.35
2022-12-23T22:53:03.577Z,2.45
2022-12-23T22:55:50.723Z,2.45
2022-12-23T22:58:21.263Z,1.95
2022-12-23T23:00:53.481Z,2.17
2022-12-23T23:03:24.664Z,2.00
2022-12-23T23:06:08.541Z,2.30
2022-12-23T23:08:47.655Z,2.40
2022-12-23T23:11:21.302Z,2.47
2022-12-23T23:13:52.016Z,2.53
2022-12-23T23:16:42.190Z,1.75
2022-12-23T23:19:16.176Z,2.03
2022-12-23T23:21:49.262Z,3.03
2022-12-23T23:24:29.366Z,2.40
2022-12-23T23:35:10.870Z,2.38
2022-12-23T23:37:59.659Z,1.40
2022-12-23T23:40:35.798Z,1.80
2022-12-23T23:43:11.714Z,2.00
2022-12-23T23:45:44.428Z,1.67
2022-12-23T23:48:18.299Z,1.95
2022-12-23T23:51:02.968Z,2.17
2022-12-23T23:53:36.613Z,1.88
2022-12-23T23:56:19.131Z,1.65
2022-12-23T23:58:56.798Z,1.90
